Terminal Aerodrome Forecast
Issued by NWS

Home | Current Version | Previous Version | Text Only | Print | Product List | Glossary On
Versions: 1 2 3 4 5 6 7 8 9 10 11 12 13 14 15 16 17 18 19 20 21 22 23 24 25 26 27 28 29 30 31 32
747
FTUS44 KFWD 020520
TAFAFW
TAF
KAFW 020520Z 0206/0306 01011KT P6SM SCT080
     FM020800 35011KT P6SM VCSH BKN050
     FM021400 34016KT P6SM BKN100
     FM030000 35007KT P6SM FEW150=

USA.gov is the U.S. government's official web portal to all federal, state and local government web resources and services.